Louisville, Alabama
Current Conditions -  °F | °C
As of 2:53 PM on Friday 19 Dec 2014 (Local Time) from KTOI Reporting Station
Few Clouds Few Clouds  
Wind Chill: 13°   Ceiling: Unl
Heat Index: 13°   Visibility: 10mi
Dew Point:   Wind: 7mph
Humidity: 51%   Direction: 360°N
Pressure: 30.09"   Gusts: NA
Location:  31.78°N, 85.56°W
Report Text: KTOI 192053Z AUTO 36006KT 10SM FEW120 13/03 A3009 RMK AO2 SLP188 T01280028 56025
Loading
Personal Weather Stations






























Interactive Weather Map New forecast layout! Learn more

10-Day Weather Forecast

Advertisements
Track Severe Weather on mobile